Accueil
METAR-TAF:

METAR-TAF

Aéroports :

Monbetsu, Japon

latitude: 44-15N, longitude: 143-32E, altitude: 6 m

Observation

Le bulletin a été fait il y a 1 heure et 17 minutes, à 07:25 UTC
Vent 3 kt de nord-est, variant entre nord et est/sud-est
Température -1°C
Humidité 100%
Pression 1017 hPa
Visibilité: 1000 m
Quelques nuages à une hauteur de 300 ft
Nuages fragmentés à une hauteur de 400 ft
Nuages fragmentés à une hauteur de 600 ft
faibles averses de neige

METAR: RJEB 090725Z 04003KT 350V120 1000 R32/1200VP2000U -SHSN FEW003 BKN004 BKN006 M01/M01 Q1017 RMK 1ST003 5ST004 6ST006 A3005

Heure: 17:42 (08:42 UTC)


TAF: absent

Observations et prévisions météorologiques de plus de 4000 aéroports (messages METAR et TAF).

Les stations disponibles sont représentées par des disques jaunes et rouges sur la carte.

Passer la souris dessus pour voir le nom de la station.

Cliquer dessus pour voir les observations et prévisions météorologiques.

Pour changer de carte: cliquez sur les boutons verts avec une croix noire pour zoomer, sur le bouton vert avec un tiret pour effectuer un zoom arrière, ou sur les flèches vertes pour les cartes adjacentes.


METAR-TAF: